Canakkale Airport Canakkale TR
ICAO: LTBH
IATA: CKZ
Category: Medium
Scheduled Services: Yes

Elevation: 23 ft
TransAlt. 10000 ft.

Airport Communications:
YESILKOY APP:122.1
TWR:123.6

LTBH Zoom In..

If you have problems with the map follow the link
https://www.worldairports.se/pages/airport.php?
ICAO=LTBH

Runways:

(A) RW 04 length 5906 ft width 98 ft
---- / hdg 37

(B) RW 22 length 5906 ft width 98 ft
---- / hdg 217

Location; LTBH
Day. 22 / Time. 10.50 Zulu
* QNH: 1017
* Temperature: 13° c. 55.4°f.
* Wind from: 230° Speed 04 kn.
Dewpoint: 04° c.
Visibility: 10 km or more,
No clouds below 1,500 m.
No cumulonimbus, and no significant weather
fenomena in the aerodrome or its vicinity.

LTBH 221050Z 23004KT 190V260 CAVOK 13/04 Q1017


Wind From 230°
Speed 04 kn.

 
 
jpsmedia.com for Web Design worldairports.se 2019   terms of use